sensor_id;sensor_type;location;lat;lon;timestamp;temperature;humidity
32400;DHT22;45045;45.440;9.178;2023-05-10T00:02:07;18.50;99.90
32400;DHT22;45045;45.440;9.178;2023-05-10T00:04:33;18.60;99.90
32400;DHT22;45045;45.440;9.178;2023-05-10T00:06:58;18.50;99.90
32400;DHT22;45045;45.440;9.178;2023-05-10T00:09:24;18.60;99.90
32400;DHT22;45045;45.440;9.178;2023-05-10T00:11:50;18.50;99.90
32400;DHT22;45045;45.440;9.178;2023-05-10T00:14:16;18.60;99.90
32400;DHT22;45045;45.440;9.178;2023-05-10T00:16:42;18.60;99.90
32400;DHT22;45045;45.440;9.178;2023-05-10T00:19:07;18.50;99.90
32400;DHT22;45045;45.440;9.178;2023-05-10T00:21:33;18.20;99.90
32400;DHT22;45045;45.440;9.178;2023-05-10T00:23:59;18.10;99.90
32400;DHT22;45045;45.440;9.178;2023-05-10T00:26:25;18.30;99.90
32400;DHT22;45045;45.440;9.178;2023-05-10T00:28:51;18.30;99.90
32400;DHT22;45045;45.440;9.178;2023-05-10T00:31:16;18.20;99.90
32400;DHT22;45045;45.440;9.178;2023-05-10T00:33:42;18.30;99.90
32400;DHT22;45045;45.440;9.178;2023-05-10T00:36:08;18.40;99.90
32400;DHT22;45045;45.440;9.178;2023-05-10T00:38:34;18.60;99.90
32400;DHT22;45045;45.440;9.178;2023-05-10T00:41:00;18.70;99.90
32400;DHT22;45045;45.440;9.178;2023-05-10T00:43:25;18.60;99.90
32400;DHT22;45045;45.440;9.178;2023-05-10T00:45:51;18.40;99.90
32400;DHT22;45045;45.440;9.178;2023-05-10T00:48:18;18.20;99.90
32400;DHT22;45045;45.440;9.178;2023-05-10T00:50:44;18.40;99.90
32400;DHT22;45045;45.440;9.178;2023-05-10T00:53:10;18.30;99.90
32400;DHT22;45045;45.440;9.178;2023-05-10T00:55:36;18.10;99.90
32400;DHT22;45045;45.440;9.178;2023-05-10T00:58:03;18.10;99.90
32400;DHT22;45045;45.440;9.178;2023-05-10T01:00:29;18.60;99.90
32400;DHT22;45045;45.440;9.178;2023-05-10T01:02:55;18.50;99.90
32400;DHT22;45045;45.440;9.178;2023-05-10T01:05:21;18.40;99.90
32400;DHT22;45045;45.440;9.178;2023-05-10T01:07:47;18.40;99.90
32400;DHT22;45045;45.440;9.178;2023-05-10T01:10:13;18.40;99.90
32400;DHT22;45045;45.440;9.178;2023-05-10T01:12:41;18.50;99.90
32400;DHT22;45045;45.440;9.178;2023-05-10T01:15:08;18.60;99.90
32400;DHT22;45045;45.440;9.178;2023-05-10T01:17:38;18.80;99.90
32400;DHT22;45045;45.440;9.178;2023-05-10T01:20:06;18.70;99.90
32400;DHT22;45045;45.440;9.178;2023-05-10T01:23:14;18.80;99.90
32400;DHT22;45045;45.440;9.178;2023-05-10T01:35:02;18.70;99.90
32400;DHT22;45045;45.440;9.178;2023-05-10T01:37:40;18.60;99.90
32400;DHT22;45045;45.440;9.178;2023-05-10T01:40:35;18.60;99.90
32400;DHT22;45045;45.440;9.178;2023-05-10T01:43:04;18.90;99.90
32400;DHT22;45045;45.440;9.178;2023-05-10T01:45:38;18.70;99.90
32400;DHT22;45045;45.440;9.178;2023-05-10T01:48:09;18.20;99.90
32400;DHT22;45045;45.440;9.178;2023-05-10T01:50:37;18.60;99.90
32400;DHT22;45045;45.440;9.178;2023-05-10T01:53:06;18.80;99.90
32400;DHT22;45045;45.440;9.178;2023-05-10T01:55:37;18.60;99.90
32400;DHT22;45045;45.440;9.178;2023-05-10T01:58:15;18.50;99.90
32400;DHT22;45045;45.440;9.178;2023-05-10T02:00:44;18.60;99.90
32400;DHT22;45045;45.440;9.178;2023-05-10T02:03:12;18.60;99.90
32400;DHT22;45045;45.440;9.178;2023-05-10T02:05:40;18.90;99.90
32400;DHT22;45045;45.440;9.178;2023-05-10T02:08:07;19.20;99.90
32400;DHT22;45045;45.440;9.178;2023-05-10T02:10:37;19.20;99.90
32400;DHT22;45045;45.440;9.178;2023-05-10T02:13:05;19.10;99.90
32400;DHT22;45045;45.440;9.178;2023-05-10T02:15:33;18.70;99.90
32400;DHT22;45045;45.440;9.178;2023-05-10T02:18:00;18.90;99.90
32400;DHT22;45045;45.440;9.178;2023-05-10T02:20:27;19.30;99.90
32400;DHT22;45045;45.440;9.178;2023-05-10T02:22:55;19.00;99.90
32400;DHT22;45045;45.440;9.178;2023-05-10T02:25:23;18.70;99.90
32400;DHT22;45045;45.440;9.178;2023-05-10T02:27:51;18.60;99.90
32400;DHT22;45045;45.440;9.178;2023-05-10T02:30:18;18.60;99.90
32400;DHT22;45045;45.440;9.178;2023-05-10T02:32:45;18.40;99.90
32400;DHT22;45045;45.440;9.178;2023-05-10T02:35:12;18.40;99.90
32400;DHT22;45045;45.440;9.178;2023-05-10T02:37:38;18.40;99.90
32400;DHT22;45045;45.440;9.178;2023-05-10T02:40:06;18.80;99.90
32400;DHT22;45045;45.440;9.178;2023-05-10T02:42:35;19.20;99.90
32400;DHT22;45045;45.440;9.178;2023-05-10T02:45:13;19.10;99.90
32400;DHT22;45045;45.440;9.178;2023-05-10T02:47:40;19.10;99.90
32400;DHT22;45045;45.440;9.178;2023-05-10T02:50:07;19.00;99.90
32400;DHT22;45045;45.440;9.178;2023-05-10T02:52:43;19.20;99.90
32400;DHT22;45045;45.440;9.178;2023-05-10T02:55:12;19.40;99.90
32400;DHT22;45045;45.440;9.178;2023-05-10T02:57:43;19.50;99.90
32400;DHT22;45045;45.440;9.178;2023-05-10T03:00:11;19.60;99.90
32400;DHT22;45045;45.440;9.178;2023-05-10T03:02:37;19.70;99.90
32400;DHT22;45045;45.440;9.178;2023-05-10T03:05:03;19.60;99.90
32400;DHT22;45045;45.440;9.178;2023-05-10T03:07:29;19.40;99.90
32400;DHT22;45045;45.440;9.178;2023-05-10T03:09:55;19.40;99.90
32400;DHT22;45045;45.440;9.178;2023-05-10T03:18:04;19.50;99.90
32400;DHT22;45045;45.440;9.178;2023-05-10T03:20:41;19.60;99.90
32400;DHT22;45045;45.440;9.178;2023-05-10T03:25:46;19.60;99.90
32400;DHT22;45045;45.440;9.178;2023-05-10T03:28:14;19.90;99.90
32400;DHT22;45045;45.440;9.178;2023-05-10T03:30:42;20.10;99.90
32400;DHT22;45045;45.440;9.178;2023-05-10T03:33:08;19.90;99.90
32400;DHT22;45045;45.440;9.178;2023-05-10T03:35:34;19.90;99.90
32400;DHT22;45045;45.440;9.178;2023-05-10T03:38:00;19.60;99.90
32400;DHT22;45045;45.440;9.178;2023-05-10T03:40:27;19.70;99.90
32400;DHT22;45045;45.440;9.178;2023-05-10T03:43:00;19.80;99.90
32400;DHT22;45045;45.440;9.178;2023-05-10T03:45:26;19.60;99.90
32400;DHT22;45045;45.440;9.178;2023-05-10T03:47:52;19.50;99.90
32400;DHT22;45045;45.440;9.178;2023-05-10T03:50:19;19.80;99.90
32400;DHT22;45045;45.440;9.178;2023-05-10T03:52:45;19.60;99.90
32400;DHT22;45045;45.440;9.178;2023-05-10T03:55:11;19.20;99.90
32400;DHT22;45045;45.440;9.178;2023-05-10T03:57:37;19.50;99.90
32400;DHT22;45045;45.440;9.178;2023-05-10T04:00:03;19.60;99.90
32400;DHT22;45045;45.440;9.178;2023-05-10T04:02:29;19.50;99.90
32400;DHT22;45045;45.440;9.178;2023-05-10T04:04:55;19.50;99.90
32400;DHT22;45045;45.440;9.178;2023-05-10T04:07:21;19.10;99.90
32400;DHT22;45045;45.440;9.178;2023-05-10T04:09:47;18.80;99.90
32400;DHT22;45045;45.440;9.178;2023-05-10T04:12:13;18.50;99.90
32400;DHT22;45045;45.440;9.178;2023-05-10T04:14:38;18.40;99.90
32400;DHT22;45045;45.440;9.178;2023-05-10T04:17:04;18.50;99.90
32400;DHT22;45045;45.440;9.178;2023-05-10T04:19:31;18.60;99.90
32400;DHT22;45045;45.440;9.178;2023-05-10T04:21:57;18.90;99.90
32400;DHT22;45045;45.440;9.178;2023-05-10T04:24:24;18.90;99.90
32400;DHT22;45045;45.440;9.178;2023-05-10T04:26:50;19.20;99.90
32400;DHT22;45045;45.440;9.178;2023-05-10T04:29:15;19.40;99.90
32400;DHT22;45045;45.440;9.178;2023-05-10T04:31:41;19.60;99.90
32400;DHT22;45045;45.440;9.178;2023-05-10T04:34:07;19.40;99.90
32400;DHT22;45045;45.440;9.178;2023-05-10T04:36:32;19.50;99.90
32400;DHT22;45045;45.440;9.178;2023-05-10T04:39:00;19.50;99.90
32400;DHT22;45045;45.440;9.178;2023-05-10T04:41:28;19.80;99.90
32400;DHT22;45045;45.440;9.178;2023-05-10T04:43:53;19.90;99.90
32400;DHT22;45045;45.440;9.178;2023-05-10T04:46:19;19.50;99.90
32400;DHT22;45045;45.440;9.178;2023-05-10T04:48:45;19.20;99.90
32400;DHT22;45045;45.440;9.178;2023-05-10T04:51:11;19.00;99.90
32400;DHT22;45045;45.440;9.178;2023-05-10T04:53:37;18.80;99.90
32400;DHT22;45045;45.440;9.178;2023-05-10T04:56:03;18.90;99.90
32400;DHT22;45045;45.440;9.178;2023-05-10T04:58:29;18.60;99.90
32400;DHT22;45045;45.440;9.178;2023-05-10T05:00:55;18.00;99.90
32400;DHT22;45045;45.440;9.178;2023-05-10T05:03:21;17.60;99.90
32400;DHT22;45045;45.440;9.178;2023-05-10T05:05:47;17.40;99.90
32400;DHT22;45045;45.440;9.178;2023-05-10T05:08:13;17.20;99.90
32400;DHT22;45045;45.440;9.178;2023-05-10T05:10:39;17.50;99.90
32400;DHT22;45045;45.440;9.178;2023-05-10T05:13:05;17.70;99.90
32400;DHT22;45045;45.440;9.178;2023-05-10T05:15:31;17.90;99.90
32400;DHT22;45045;45.440;9.178;2023-05-10T05:17:57;18.00;99.90
32400;DHT22;45045;45.440;9.178;2023-05-10T05:20:23;18.20;99.90
32400;DHT22;45045;45.440;9.178;2023-05-10T05:22:48;18.00;99.90
32400;DHT22;45045;45.440;9.178;2023-05-10T05:25:14;18.20;99.90
32400;DHT22;45045;45.440;9.178;2023-05-10T05:27:41;18.20;99.90
32400;DHT22;45045;45.440;9.178;2023-05-10T05:30:07;18.50;99.90
32400;DHT22;45045;45.440;9.178;2023-05-10T05:32:33;18.70;99.90
32400;DHT22;45045;45.440;9.178;2023-05-10T05:34:59;18.80;99.90
32400;DHT22;45045;45.440;9.178;2023-05-10T05:37:25;18.90;99.90
32400;DHT22;45045;45.440;9.178;2023-05-10T05:39:51;19.20;99.90
32400;DHT22;45045;45.440;9.178;2023-05-10T05:42:16;19.50;99.90
32400;DHT22;45045;45.440;9.178;2023-05-10T05:44:44;19.50;99.90
32400;DHT22;45045;45.440;9.178;2023-05-10T05:47:10;19.70;99.90
32400;DHT22;45045;45.440;9.178;2023-05-10T05:49:36;19.60;99.90
32400;DHT22;45045;45.440;9.178;2023-05-10T05:52:03;19.10;99.90
32400;DHT22;45045;45.440;9.178;2023-05-10T05:54:29;19.20;99.90
32400;DHT22;45045;45.440;9.178;2023-05-10T05:56:59;19.30;99.90
32400;DHT22;45045;45.440;9.178;2023-05-10T05:59:25;19.20;99.90
32400;DHT22;45045;45.440;9.178;2023-05-10T06:01:50;19.00;99.90
32400;DHT22;45045;45.440;9.178;2023-05-10T06:04:17;18.90;99.90
32400;DHT22;45045;45.440;9.178;2023-05-10T06:06:43;19.40;99.90
32400;DHT22;45045;45.440;9.178;2023-05-10T06:09:09;19.80;99.90
32400;DHT22;45045;45.440;9.178;2023-05-10T06:11:35;20.10;99.90
32400;DHT22;45045;45.440;9.178;2023-05-10T06:14:01;20.30;99.90
32400;DHT22;45045;45.440;9.178;2023-05-10T06:16:27;20.40;99.90
32400;DHT22;45045;45.440;9.178;2023-05-10T06:18:53;20.40;99.90
32400;DHT22;45045;45.440;9.178;2023-05-10T06:21:19;20.40;99.90
32400;DHT22;45045;45.440;9.178;2023-05-10T06:23:44;20.00;99.90
32400;DHT22;45045;45.440;9.178;2023-05-10T06:26:10;19.50;99.90
32400;DHT22;45045;45.440;9.178;2023-05-10T06:28:36;19.20;99.90
32400;DHT22;45045;45.440;9.178;2023-05-10T06:31:04;18.80;99.90
32400;DHT22;45045;45.440;9.178;2023-05-10T06:33:29;18.60;99.90
32400;DHT22;45045;45.440;9.178;2023-05-10T06:35:55;18.60;99.90
32400;DHT22;45045;45.440;9.178;2023-05-10T06:38:21;18.40;99.90
32400;DHT22;45045;45.440;9.178;2023-05-10T06:40:47;18.70;99.90
32400;DHT22;45045;45.440;9.178;2023-05-10T06:43:13;19.10;99.90
32400;DHT22;45045;45.440;9.178;2023-05-10T06:45:38;19.30;99.90
32400;DHT22;45045;45.440;9.178;2023-05-10T06:48:04;19.40;99.90
32400;DHT22;45045;45.440;9.178;2023-05-10T06:50:30;19.60;99.90
32400;DHT22;45045;45.440;9.178;2023-05-10T06:52:55;19.60;99.90
32400;DHT22;45045;45.440;9.178;2023-05-10T06:55:21;19.70;99.90
32400;DHT22;45045;45.440;9.178;2023-05-10T06:57:47;19.10;99.90
32400;DHT22;45045;45.440;9.178;2023-05-10T07:00:13;18.40;99.90
32400;DHT22;45045;45.440;9.178;2023-05-10T07:02:39;18.00;99.90
32400;DHT22;45045;45.440;9.178;2023-05-10T07:05:05;17.90;99.90
32400;DHT22;45045;45.440;9.178;2023-05-10T07:07:31;18.10;99.90
32400;DHT22;45045;45.440;9.178;2023-05-10T07:09:57;17.90;99.90
32400;DHT22;45045;45.440;9.178;2023-05-10T07:12:23;17.90;99.90
32400;DHT22;45045;45.440;9.178;2023-05-10T07:14:49;18.10;99.90
32400;DHT22;45045;45.440;9.178;2023-05-10T07:17:15;18.40;99.90
32400;DHT22;45045;45.440;9.178;2023-05-10T07:19:41;18.60;99.90
32400;DHT22;45045;45.440;9.178;2023-05-10T07:22:06;18.60;99.90
32400;DHT22;45045;45.440;9.178;2023-05-10T07:24:33;19.00;99.90
32400;DHT22;45045;45.440;9.178;2023-05-10T07:26:59;19.40;99.90
32400;DHT22;45045;45.440;9.178;2023-05-10T07:29:25;19.40;99.90
32400;DHT22;45045;45.440;9.178;2023-05-10T07:31:51;19.70;99.90
32400;DHT22;45045;45.440;9.178;2023-05-10T07:34:17;19.80;99.90
32400;DHT22;45045;45.440;9.178;2023-05-10T07:36:43;20.00;99.90
32400;DHT22;45045;45.440;9.178;2023-05-10T07:39:08;20.10;99.90
32400;DHT22;45045;45.440;9.178;2023-05-10T07:41:34;20.20;99.90
32400;DHT22;45045;45.440;9.178;2023-05-10T07:44:00;20.30;99.90
32400;DHT22;45045;45.440;9.178;2023-05-10T07:46:26;20.30;99.90
32400;DHT22;45045;45.440;9.178;2023-05-10T07:48:52;20.40;99.90
32400;DHT22;45045;45.440;9.178;2023-05-10T07:51:17;20.40;99.90
32400;DHT22;45045;45.440;9.178;2023-05-10T07:53:43;20.40;99.90
32400;DHT22;45045;45.440;9.178;2023-05-10T07:56:26;20.50;99.90
32400;DHT22;45045;45.440;9.178;2023-05-10T07:58:55;20.50;99.90
32400;DHT22;45045;45.440;9.178;2023-05-10T08:01:21;20.50;99.90
32400;DHT22;45045;45.440;9.178;2023-05-10T08:03:47;20.60;99.90
32400;DHT22;45045;45.440;9.178;2023-05-10T08:06:16;20.60;99.90
32400;DHT22;45045;45.440;9.178;2023-05-10T08:08:42;20.60;99.90
32400;DHT22;45045;45.440;9.178;2023-05-10T08:11:08;20.60;99.90
32400;DHT22;45045;45.440;9.178;2023-05-10T08:13:33;20.60;99.90
32400;DHT22;45045;45.440;9.178;2023-05-10T08:15:59;20.70;99.90
32400;DHT22;45045;45.440;9.178;2023-05-10T08:18:25;20.60;99.90
32400;DHT22;45045;45.440;9.178;2023-05-10T08:20:51;20.60;99.90
32400;DHT22;45045;45.440;9.178;2023-05-10T08:23:17;20.60;99.90
32400;DHT22;45045;45.440;9.178;2023-05-10T08:25:43;20.60;99.90
32400;DHT22;45045;45.440;9.178;2023-05-10T08:28:08;20.50;99.90
32400;DHT22;45045;45.440;9.178;2023-05-10T08:30:34;20.60;99.90
32400;DHT22;45045;45.440;9.178;2023-05-10T08:33:00;20.60;99.90
32400;DHT22;45045;45.440;9.178;2023-05-10T08:35:26;20.60;99.90
32400;DHT22;45045;45.440;9.178;2023-05-10T08:37:51;20.60;99.90
32400;DHT22;45045;45.440;9.178;2023-05-10T08:40:19;20.60;99.90
32400;DHT22;45045;45.440;9.178;2023-05-10T08:42:53;20.60;99.90
32400;DHT22;45045;45.440;9.178;2023-05-10T08:45:23;20.40;99.90
32400;DHT22;45045;45.440;9.178;2023-05-10T08:47:50;20.60;99.90
32400;DHT22;45045;45.440;9.178;2023-05-10T08:50:20;20.70;99.90
32400;DHT22;45045;45.440;9.178;2023-05-10T08:52:48;20.70;99.90
32400;DHT22;45045;45.440;9.178;2023-05-10T08:55:16;20.70;99.90
32400;DHT22;45045;45.440;9.178;2023-05-10T08:57:42;20.70;99.90
32400;DHT22;45045;45.440;9.178;2023-05-10T09:00:08;20.70;99.90
32400;DHT22;45045;45.440;9.178;2023-05-10T09:02:35;20.80;99.90
32400;DHT22;45045;45.440;9.178;2023-05-10T09:05:02;20.90;99.90
32400;DHT22;45045;45.440;9.178;2023-05-10T09:07:30;20.80;99.90
32400;DHT22;45045;45.440;9.178;2023-05-10T09:09:56;20.90;99.90
32400;DHT22;45045;45.440;9.178;2023-05-10T09:12:22;20.90;99.90
32400;DHT22;45045;45.440;9.178;2023-05-10T09:14:50;20.90;99.90
32400;DHT22;45045;45.440;9.178;2023-05-10T09:17:17;20.90;99.90
32400;DHT22;45045;45.440;9.178;2023-05-10T09:19:45;20.70;99.90
32400;DHT22;45045;45.440;9.178;2023-05-10T09:22:10;20.50;99.90
32400;DHT22;45045;45.440;9.178;2023-05-10T09:24:36;20.50;99.90
32400;DHT22;45045;45.440;9.178;2023-05-10T09:27:07;20.40;99.90
32400;DHT22;45045;45.440;9.178;2023-05-10T09:29:44;20.50;99.90
32400;DHT22;45045;45.440;9.178;2023-05-10T09:32:10;20.70;99.90
32400;DHT22;45045;45.440;9.178;2023-05-10T09:34:36;20.80;99.90
32400;DHT22;45045;45.440;9.178;2023-05-10T09:37:05;20.60;99.90
32400;DHT22;45045;45.440;9.178;2023-05-10T09:39:38;20.50;99.90
32400;DHT22;45045;45.440;9.178;2023-05-10T09:42:06;20.60;99.90
32400;DHT22;45045;45.440;9.178;2023-05-10T09:44:33;20.50;99.90
32400;DHT22;45045;45.440;9.178;2023-05-10T09:47:00;20.50;99.90
32400;DHT22;45045;45.440;9.178;2023-05-10T09:49:26;20.50;99.90
32400;DHT22;45045;45.440;9.178;2023-05-10T09:52:05;20.50;99.90
32400;DHT22;45045;45.440;9.178;2023-05-10T09:54:32;20.20;99.90
32400;DHT22;45045;45.440;9.178;2023-05-10T09:56:58;20.30;99.90
32400;DHT22;45045;45.440;9.178;2023-05-10T09:59:27;20.40;99.90
32400;DHT22;45045;45.440;9.178;2023-05-10T10:01:58;20.40;99.90
32400;DHT22;45045;45.440;9.178;2023-05-10T10:04:25;20.20;99.90
32400;DHT22;45045;45.440;9.178;2023-05-10T10:07:01;20.50;99.90
32400;DHT22;45045;45.440;9.178;2023-05-10T10:09:28;20.30;99.90
32400;DHT22;45045;45.440;9.178;2023-05-10T10:11:54;20.40;99.90
32400;DHT22;45045;45.440;9.178;2023-05-10T10:14:22;20.50;99.90
32400;DHT22;45045;45.440;9.178;2023-05-10T10:16:49;20.50;99.90
32400;DHT22;45045;45.440;9.178;2023-05-10T10:19:15;20.60;99.90
32400;DHT22;45045;45.440;9.178;2023-05-10T10:21:41;20.50;99.90
32400;DHT22;45045;45.440;9.178;2023-05-10T10:24:07;20.40;99.90
32400;DHT22;45045;45.440;9.178;2023-05-10T10:26:34;20.20;99.90
32400;DHT22;45045;45.440;9.178;2023-05-10T10:29:33;20.30;99.90
32400;DHT22;45045;45.440;9.178;2023-05-10T10:32:27;20.30;99.90
32400;DHT22;45045;45.440;9.178;2023-05-10T10:34:55;20.20;99.90
32400;DHT22;45045;45.440;9.178;2023-05-10T10:37:21;20.20;99.90
32400;DHT22;45045;45.440;9.178;2023-05-10T10:39:48;20.40;99.90
32400;DHT22;45045;45.440;9.178;2023-05-10T10:42:44;20.50;99.90
32400;DHT22;45045;45.440;9.178;2023-05-10T10:45:12;20.50;99.90
32400;DHT22;45045;45.440;9.178;2023-05-10T10:47:37;20.20;99.90
32400;DHT22;45045;45.440;9.178;2023-05-10T10:50:05;19.60;99.90
32400;DHT22;45045;45.440;9.178;2023-05-10T10:57:26;20.00;99.90
32400;DHT22;45045;45.440;9.178;2023-05-10T11:02:44;20.00;99.90
32400;DHT22;45045;45.440;9.178;2023-05-10T11:07:58;20.10;99.90
32400;DHT22;45045;45.440;9.178;2023-05-10T11:10:25;20.20;99.90
32400;DHT22;45045;45.440;9.178;2023-05-10T11:15:18;20.30;99.90
32400;DHT22;45045;45.440;9.178;2023-05-10T11:17:44;20.50;99.90
32400;DHT22;45045;45.440;9.178;2023-05-10T11:20:14;20.50;99.90
32400;DHT22;45045;45.440;9.178;2023-05-10T11:22:53;20.60;99.90
32400;DHT22;45045;45.440;9.178;2023-05-10T11:25:20;20.70;99.90
32400;DHT22;45045;45.440;9.178;2023-05-10T11:27:47;20.70;99.90
32400;DHT22;45045;45.440;9.178;2023-05-10T11:30:14;20.70;99.90
32400;DHT22;45045;45.440;9.178;2023-05-10T11:32:40;20.70;99.90
32400;DHT22;45045;45.440;9.178;2023-05-10T11:35:11;20.60;99.90
32400;DHT22;45045;45.440;9.178;2023-05-10T11:37:38;20.50;99.90
32400;DHT22;45045;45.440;9.178;2023-05-10T11:40:08;20.60;99.90
32400;DHT22;45045;45.440;9.178;2023-05-10T11:42:37;20.70;99.90
32400;DHT22;45045;45.440;9.178;2023-05-10T11:45:03;20.60;99.90
32400;DHT22;45045;45.440;9.178;2023-05-10T11:47:29;20.60;99.90
32400;DHT22;45045;45.440;9.178;2023-05-10T11:49:55;20.60;99.90
32400;DHT22;45045;45.440;9.178;2023-05-10T11:52:21;20.60;99.90
32400;DHT22;45045;45.440;9.178;2023-05-10T11:54:53;20.50;99.90
32400;DHT22;45045;45.440;9.178;2023-05-10T11:57:25;20.60;99.90
32400;DHT22;45045;45.440;9.178;2023-05-10T11:59:54;20.60;99.90
32400;DHT22;45045;45.440;9.178;2023-05-10T12:02:21;20.60;99.90
32400;DHT22;45045;45.440;9.178;2023-05-10T12:04:47;20.80;99.90
32400;DHT22;45045;45.440;9.178;2023-05-10T12:07:13;20.90;99.90
32400;DHT22;45045;45.440;9.178;2023-05-10T12:10:02;20.70;99.90
32400;DHT22;45045;45.440;9.178;2023-05-10T12:15:04;20.70;99.90
32400;DHT22;45045;45.440;9.178;2023-05-10T12:17:31;20.80;99.90
32400;DHT22;45045;45.440;9.178;2023-05-10T12:20:16;20.90;99.90
32400;DHT22;45045;45.440;9.178;2023-05-10T12:22:53;21.10;99.90
32400;DHT22;45045;45.440;9.178;2023-05-10T12:25:21;21.20;99.90
32400;DHT22;45045;45.440;9.178;2023-05-10T12:27:57;21.20;99.90
32400;DHT22;45045;45.440;9.178;2023-05-10T12:30:25;21.20;99.90
32400;DHT22;45045;45.440;9.178;2023-05-10T12:32:52;21.30;99.90
32400;DHT22;45045;45.440;9.178;2023-05-10T12:35:18;21.40;99.90
32400;DHT22;45045;45.440;9.178;2023-05-10T12:37:47;21.50;99.90
32400;DHT22;45045;45.440;9.178;2023-05-10T12:40:13;21.50;99.90
32400;DHT22;45045;45.440;9.178;2023-05-10T12:42:39;21.70;99.90
32400;DHT22;45045;45.440;9.178;2023-05-10T12:45:06;21.70;99.90
32400;DHT22;45045;45.440;9.178;2023-05-10T12:47:33;21.80;99.90
32400;DHT22;45045;45.440;9.178;2023-05-10T12:50:00;21.80;99.90
32400;DHT22;45045;45.440;9.178;2023-05-10T12:52:27;21.80;99.90
32400;DHT22;45045;45.440;9.178;2023-05-10T12:54:53;21.90;99.90
32400;DHT22;45045;45.440;9.178;2023-05-10T12:57:20;21.80;99.90
32400;DHT22;45045;45.440;9.178;2023-05-10T12:59:45;21.80;99.90
32400;DHT22;45045;45.440;9.178;2023-05-10T13:02:11;21.80;99.90
32400;DHT22;45045;45.440;9.178;2023-05-10T13:04:37;21.80;99.90
32400;DHT22;45045;45.440;9.178;2023-05-10T13:07:08;21.80;99.90
32400;DHT22;45045;45.440;9.178;2023-05-10T13:09:34;21.80;99.90
32400;DHT22;45045;45.440;9.178;2023-05-10T13:12:00;21.80;99.90
32400;DHT22;45045;45.440;9.178;2023-05-10T13:14:26;21.80;99.90
32400;DHT22;45045;45.440;9.178;2023-05-10T13:16:52;21.70;99.90
32400;DHT22;45045;45.440;9.178;2023-05-10T13:19:17;21.70;99.90
32400;DHT22;45045;45.440;9.178;2023-05-10T13:21:43;21.70;99.90
32400;DHT22;45045;45.440;9.178;2023-05-10T13:24:12;21.70;99.90
32400;DHT22;45045;45.440;9.178;2023-05-10T13:26:39;21.70;99.90
32400;DHT22;45045;45.440;9.178;2023-05-10T13:29:05;21.70;99.90
32400;DHT22;45045;45.440;9.178;2023-05-10T13:31:31;21.70;99.90
32400;DHT22;45045;45.440;9.178;2023-05-10T13:33:56;21.70;99.90
32400;DHT22;45045;45.440;9.178;2023-05-10T13:36:22;21.70;99.90
32400;DHT22;45045;45.440;9.178;2023-05-10T13:38:48;21.70;99.90
32400;DHT22;45045;45.440;9.178;2023-05-10T13:41:13;21.80;99.90
32400;DHT22;45045;45.440;9.178;2023-05-10T13:43:39;21.80;99.90
32400;DHT22;45045;45.440;9.178;2023-05-10T13:46:05;21.80;99.90
32400;DHT22;45045;45.440;9.178;2023-05-10T13:48:31;21.80;99.90
32400;DHT22;45045;45.440;9.178;2023-05-10T13:50:56;21.80;99.90
32400;DHT22;45045;45.440;9.178;2023-05-10T13:53:22;21.80;99.90
32400;DHT22;45045;45.440;9.178;2023-05-10T13:55:48;21.80;99.90
32400;DHT22;45045;45.440;9.178;2023-05-10T13:58:14;21.80;99.90
32400;DHT22;45045;45.440;9.178;2023-05-10T14:00:40;21.70;99.90
32400;DHT22;45045;45.440;9.178;2023-05-10T14:03:06;21.80;99.90
32400;DHT22;45045;45.440;9.178;2023-05-10T14:05:32;21.80;99.90
32400;DHT22;45045;45.440;9.178;2023-05-10T14:07:58;21.90;99.90
32400;DHT22;45045;45.440;9.178;2023-05-10T14:10:24;21.90;99.90
32400;DHT22;45045;45.440;9.178;2023-05-10T14:12:50;21.80;99.90
32400;DHT22;45045;45.440;9.178;2023-05-10T14:15:16;21.90;99.90
32400;DHT22;45045;45.440;9.178;2023-05-10T14:17:41;21.70;99.90
32400;DHT22;45045;45.440;9.178;2023-05-10T14:20:07;21.80;99.90
32400;DHT22;45045;45.440;9.178;2023-05-10T14:22:34;21.90;99.90
32400;DHT22;45045;45.440;9.178;2023-05-10T14:25:00;21.90;99.90
32400;DHT22;45045;45.440;9.178;2023-05-10T14:27:25;21.90;99.90
32400;DHT22;45045;45.440;9.178;2023-05-10T14:29:51;21.90;99.90
32400;DHT22;45045;45.440;9.178;2023-05-10T14:32:18;22.00;99.90
32400;DHT22;45045;45.440;9.178;2023-05-10T14:34:44;22.00;99.90
32400;DHT22;45045;45.440;9.178;2023-05-10T14:37:10;22.00;99.90
32400;DHT22;45045;45.440;9.178;2023-05-10T14:39:37;22.00;99.90
32400;DHT22;45045;45.440;9.178;2023-05-10T14:42:03;22.00;99.90
32400;DHT22;45045;45.440;9.178;2023-05-10T14:44:29;22.00;99.90
32400;DHT22;45045;45.440;9.178;2023-05-10T14:46:55;21.90;99.90
32400;DHT22;45045;45.440;9.178;2023-05-10T14:49:22;21.90;99.90
32400;DHT22;45045;45.440;9.178;2023-05-10T14:51:50;21.90;99.90
32400;DHT22;45045;45.440;9.178;2023-05-10T14:54:15;21.90;99.90
32400;DHT22;45045;45.440;9.178;2023-05-10T14:56:41;22.00;99.90
32400;DHT22;45045;45.440;9.178;2023-05-10T14:59:07;22.00;99.90
32400;DHT22;45045;45.440;9.178;2023-05-10T15:01:33;22.00;99.90
32400;DHT22;45045;45.440;9.178;2023-05-10T15:04:03;22.00;99.90
32400;DHT22;45045;45.440;9.178;2023-05-10T15:06:32;21.90;99.90
32400;DHT22;45045;45.440;9.178;2023-05-10T15:08:59;22.00;99.90
32400;DHT22;45045;45.440;9.178;2023-05-10T15:11:25;22.00;99.90
32400;DHT22;45045;45.440;9.178;2023-05-10T15:13:51;22.00;99.90
32400;DHT22;45045;45.440;9.178;2023-05-10T15:16:17;22.00;99.90
32400;DHT22;45045;45.440;9.178;2023-05-10T15:18:43;22.00;99.90
32400;DHT22;45045;45.440;9.178;2023-05-10T15:21:09;22.00;99.90
32400;DHT22;45045;45.440;9.178;2023-05-10T15:23:35;21.90;99.90
32400;DHT22;45045;45.440;9.178;2023-05-10T15:26:00;22.00;99.90
32400;DHT22;45045;45.440;9.178;2023-05-10T15:28:26;21.90;99.90
32400;DHT22;45045;45.440;9.178;2023-05-10T15:30:52;21.90;99.90
32400;DHT22;45045;45.440;9.178;2023-05-10T15:33:18;21.90;99.90
32400;DHT22;45045;45.440;9.178;2023-05-10T15:35:43;22.00;99.90
32400;DHT22;45045;45.440;9.178;2023-05-10T15:38:09;22.00;99.80
32400;DHT22;45045;45.440;9.178;2023-05-10T15:40:35;22.00;99.80
32400;DHT22;45045;45.440;9.178;2023-05-10T15:43:01;22.00;98.40
32400;DHT22;45045;45.440;9.178;2023-05-10T15:45:27;21.90;98.70
32400;DHT22;45045;45.440;9.178;2023-05-10T15:47:53;21.80;99.50
32400;DHT22;45045;45.440;9.178;2023-05-10T15:50:19;21.80;99.40
32400;DHT22;45045;45.440;9.178;2023-05-10T15:52:44;21.90;99.50
32400;DHT22;45045;45.440;9.178;2023-05-10T15:55:10;21.90;99.40
32400;DHT22;45045;45.440;9.178;2023-05-10T15:57:39;21.90;99.20
32400;DHT22;45045;45.440;9.178;2023-05-10T16:00:07;21.80;98.90
32400;DHT22;45045;45.440;9.178;2023-05-10T16:02:33;21.90;99.10
32400;DHT22;45045;45.440;9.178;2023-05-10T16:04:59;21.90;98.90